• Join FlightAware (Why Join?)
  • Login
  • US Flag 
07:58AM EDT


 

Airport Tracker/Info


-or-


 

Live Flight TrackerFlight Track Log ✈ QXE2341 ✈ 11-Nov-2013 ✈ KMSO - KSEA

Flight Track Log - Related Links

Times and Time Zones

All times are in EST time to prevent confusion due to time zone crossing. See the QXE2341 flight status page for this flight to view local times or setup timezone preferences in your user account.

Time Position Orientation Groundspeed Altitude Reporting Facility
EST Latitude Longitude Course Direction KTS MPH feet Rate Location/Type
09:10AM 46.9739 -114.6718 294° West  Level Estimated
09:11AM 46.9850 -114.7882 288° West  Level Estimated
09:12AM 47.0396 -114.8743 313° West  Level FlightAware Approximate
09:13AM 47.0941 -114.9606 313° West  Level FlightAware Approximate
09:14AM 47.1035 -115.0776 292° West  Level Estimated
09:15AM 47.1128 -115.1946 270° West  Level Estimated
09:16AM 47.1220 -115.3117 275° West  Level Estimated
09:17AM 47.1442 -115.4250 286° West  Level FlightAware Approximate
09:18AM 47.1664 -115.5383 286° West  Level FlightAware Approximate
09:19AM 47.1746 -115.6530 276° West  Level Estimated
09:20AM 47.1826 -115.7678 276° West  Level Estimated
09:21AM 47.1906 -115.8825 276° West  Level Estimated
09:22AM 47.1984 -115.9973 276° West  Level Estimated
09:23AM 47.2061 -116.1119 276° West  Level Estimated
09:24AM 47.2136 -116.2265 276° West  Level Estimated
09:25AM 47.2211 -116.3411 276° West  Level Estimated
09:26AM 47.2284 -116.4558 275° West  Level Estimated
09:27AM 47.2357 -116.5705 275° West  Level Estimated
09:28AM 47.2428 -116.6852 275° West  Level Estimated
09:29AM 47.2498 -116.8000 275° West  Level Estimated
09:30AM 47.2567 -116.9148 275° West  Level Estimated
09:31AM 47.2634 -117.0296 275° West  Level Estimated
09:32AM 47.2701 -117.1445 275° West  Level Estimated
09:33AM 47.2766 -117.2593 275° West  Level Estimated
09:34AM 47.2831 -117.3743 275° West  Level Estimated
09:35AM 47.2894 -117.4892 275° West  Level Estimated
09:36AM 47.2956 -117.6041 275° West  Level Estimated
09:37AM 47.3017 -117.7191 275° West  Level Estimated
09:38AM 47.3076 -117.8341 274° West  Level Estimated
09:39AM 47.3135 -117.9492 274° West  Level Estimated
09:40AM 47.3192 -118.0642 274° West  Level Estimated
09:41AM 47.3248 -118.1793 274° West  Level Estimated
09:42AM 47.3303 -118.2944 274° West  Level Estimated
09:43AM 47.3357 -118.4096 274° West  Level Estimated
09:44AM 47.3410 -118.5247 274° West  Level Estimated
09:45AM 47.3462 -118.6399 274° West  Level Estimated
09:46AM 47.3512 -118.7551 274° West  Level Estimated
09:47AM 47.3562 -118.8704 274° West  Level Estimated
09:48AM 47.3610 -118.9856 274° West  Level Estimated
09:49AM 47.3657 -119.1008 273° West  Level Estimated
09:50AM 47.3702 -119.2160 273° West  Level Estimated
09:51AM 47.3747 -119.3312 273° West  Level Estimated
09:52AM 47.3790 -119.4455 273° West  Level Estimated
09:53AM 47.3832 -119.5599 273° West  Level Estimated
09:54AM 47.3873 -119.6742 273° West  Level Estimated
09:55AM 47.3913 -119.7906 273° West  Level Estimated
09:56AM 47.3953 -119.9069 273° West  Level Estimated
09:57AM 47.3991 -120.0233 273° West  Level Estimated
09:58AM 47.4028 -120.1397 273° West  Level Estimated
09:59AM 47.4063 -120.2561 273° West  Level Estimated
10:00AM 47.4098 -120.3726 273° West  Level Estimated
10:01AM 47.4131 -120.4890 272° West  Level Estimated
10:02AM 47.4163 -120.6055 272° West  Level Estimated
10:03AM 47.4194 -120.7220 272° West  Level Estimated
10:04AM 47.4224 -120.8385 272° West  Level Estimated
10:05AM 47.4253 -120.9550 272° West  Level Estimated
10:06AM 47.4280 -121.0715 272° West  Level Estimated
10:07AM 47.4306 -121.1880 272° West  Level Estimated
10:08AM 47.4332 -121.3046 272° West  Level Estimated
10:09AM 47.4355 -121.4183 272° West  Level Estimated
10:10AM 47.4377 -121.5321 272° West  Level Estimated
10:11AM 47.4398 -121.6459 272° West  Level Estimated
10:12AM 47.4418 -121.7596 272° West  Level Estimated
10:13AM 47.4437 -121.8734 271° West  Level Estimated
10:14AM 47.4455 -121.9872 271° West  Level Estimated
10:15AM 47.4471 -122.1010 271° West  Level Estimated
10:16AM 47.4487 -122.2148 271° West  Level Estimated
10:17AM 47.4499 -122.3118 271° West  Level Estimated
10:18AM 47.4499 -122.3118 126° Southeast  Level Estimated
10:19AM 47.4499 -122.3118 126° Southeast  Level Estimated
10:20AM 47.4499 -122.3118 126° Southeast  Level Estimated
10:21AM 47.4499 -122.3118 222° Southwest  Level Estimated
10:22AM 47.4499 -122.3118 222° Southwest  Level Estimated
10:23AM 47.4499 -122.3118 222° Southwest  Level Estimated
10:24AM 47.4499 -122.3118 180° South  Level Estimated
10:25AM 47.4499 -122.3118 180° South  Level Estimated
10:26AM 47.4499 -122.3118 180° South  Level Estimated
10:27AM 47.4499 -122.3118 180° South  Level Estimated
10:28AM 47.4499 -122.3118 180° South  Level Estimated
10:29AM 47.4499 -122.3118 180° South  Level Estimated
10:30AM 47.4499 -122.3118 180° South  Level Estimated